Main page
METAR-TAF:

METAR-TAF

Airports :

Prague, Czech Republic

Václav Havel Airport Prague

latitude: 50-06N, longitude: 014-15E, elevation: 365 m

Current weather observation

The report was made 28 minutes ago, at 11:30 UTC
Wind 13 kt from the West, varying between West/Southwest and Northwest
Temperature 19°C
Humidity 43%
Pressure 1022 hPa
Visibility 10 km or more
Few clouds at a height of 4300 ft

METAR: LKPR 211130Z 28013KT 250V310 9999 FEW043 19/06 Q1022 NOSIG

Time: 13:58 (11:58 UTC)

Forecast

The report was made 58 minutes ago, at 11:00 UTC
Forecast valid from 21 at 12 UTC to 22 at 18 UTC
Wind 6 kt from the West
Visibility 10 km or more
no clouds below 1500 m and no cumulonimbus
Temporary
from 21 at 12 UTC to 21 at 18 UTC
Wind 16 kt from the North/Northwest
Scattered clouds at a height of 4000 ft
Temporary
from 22 at 10 UTC to 22 at 16 UTC
Wind 16 kt from the North
Scattered clouds at a height of 4000 ft

TAF: LKPR 211100Z 2112/2218 26006KT CAVOK TEMPO 2112/2118 33016KT SCT040 TEMPO 2210/2216 35016KT SCT040

Weather observations and forecasts of more than 4000 airports (METAR and TAF reports).

The available stations are represented by yellow and red dots on the map.

Hover mouse over dot to see the name of the station.

Then click to see weather observations and forecasts.

To change the map : click on the green buttons with a black cross to zoom in, on the green button with a dash to zoom out, or on the green arrows for adjacent maps.


METAR-TAF: